Terminal Aerodrome Forecast
Issued by NWS

Home | Current Version | Previous Version | Text Only | Print | Product List | Glossary On
Versions: 1 2 3 4 5 6 7 8 9 10 11 12 13 14 15
000
FTAK31 PAJN 241100
TAFAJN
TAF
PAJN 241134Z 2412/2512 00000KT P6SM VCSH FEW010 BKN035 OVC060
     FM241500 VRB02KT P6SM BKN050
     FM242100 23004KT P6SM SCT050
     FM250400 VRB03KT P6SM SKC=

USA.gov is the U.S. government's official web portal to all federal, state and local government web resources and services.